This is the latest recevied weather packets stored in our database for station/object NY3Q. If no packets are shown the sender has not sent any weather packets the latest 10 day(s).
| Time | Temp. | Humidity | Pressure | Rain* | Wind** | Luminosity | Snow |
|---|---|---|---|---|---|---|---|
| 1778096438 | 31.67° C | 57% | 1015.2 hPa | 0 mm | - | 561 W/m² | - |
| 1778096136 | 31.67° C | 57% | 1015.3 hPa | 0 mm | - | 523 W/m² | - |
| 1778095832 | 32.22° C | 55% | 1015.6 hPa | 0 mm | - | 530 W/m² | - |
| 1778095529 | 32.22° C | 55% | 1015.7 hPa | 0 mm | - | 543 W/m² | - |
| 1778095225 | 31.67° C | 56% | 1015.5 hPa | 0 mm | - | 509 W/m² | - |
| 1778094922 | 31.67° C | 59% | 1015.6 hPa | 0 mm | - | 532 W/m² | - |
| 1778094618 | 32.22° C | 56% | 1015.5 hPa | 0 mm | - | 537 W/m² | - |
| 1778094315 | 32.22° C | 54% | 1015.8 hPa | 0 mm | - | 608 W/m² | - |
| 1778094013 | 32.22° C | 55% | 1015.5 hPa | 0 mm | - | 431 W/m² | - |
| 1778093709 | 32.78° C | 54% | 1015.7 hPa | 0 mm | - | 444 W/m² | - |
| 1778093406 | 32.22° C | 54% | 1015.9 hPa | 0 mm | - | 654 W/m² | - |
| 1778093103 | 32.22° C | 52% | 1015.9 hPa | 0 mm | - | 610 W/m² | - |
| 1778092800 | 32.22° C | 54% | 1015.8 hPa | 0 mm | - | 619 W/m² | - |
| 1778092496 | 33.33° C | 51% | 1015.9 hPa | 0 mm | - | 156 W/m² | - |
| 1778092193 | 33.89° C | 43% | 1016.1 hPa | 0 mm | - | 615 W/m² | - |
| 1778091890 | 33.89° C | 43% | 1016.1 hPa | 0 mm | - | 654 W/m² | - |
| 1778091587 | 33.89° C | 43% | 1016.3 hPa | 0 mm | - | 641 W/m² | - |
| 1778091285 | 33.89° C | 43% | 1016.1 hPa | 0 mm | - | 647 W/m² | - |
| 1778090982 | 33.89° C | 44% | 1016.2 hPa | 0 mm | - | 581 W/m² | - |
| 1778090678 | 33.33° C | 44% | 1016.3 hPa | 0 mm | - | 625 W/m² | - |
| 1778090375 | 33.33° C | 43% | 1016.2 hPa | 0 mm | - | 594 W/m² | - |
| 1778090072 | 33.33° C | 46% | 1016.3 hPa | 0 mm | - | 614 W/m² | - |
| 1778089768 | 33.33° C | 47% | 1016.5 hPa | 0 mm | - | 666 W/m² | - |
| 1778089467 | 33.33° C | 44% | 1016.4 hPa | 0 mm | - | 612 W/m² | - |
| 1778089163 | 32.78° C | 45% | 1016.5 hPa | 0 mm | - | 627 W/m² | - |
* Rain latest hour (hover to see other rain measurements)
** Current wind speed in m/s (hover to see current wind gust speed)